sensor_id;sensor_type;location;lat;lon;timestamp;temperature;humidity
10213;DHT22;5150;51.400;6.692;2022-11-30T00:02:23;17.20;1.00
10213;DHT22;5150;51.400;6.692;2022-11-30T00:05:47;17.20;1.00
10213;DHT22;5150;51.400;6.692;2022-11-30T00:09:11;17.20;99.90
10213;DHT22;5150;51.400;6.692;2022-11-30T00:12:35;17.20;99.90
10213;DHT22;5150;51.400;6.692;2022-11-30T00:15:59;17.20;99.90
10213;DHT22;5150;51.400;6.692;2022-11-30T00:19:22;17.20;99.90
10213;DHT22;5150;51.400;6.692;2022-11-30T00:22:45;17.20;99.90
10213;DHT22;5150;51.400;6.692;2022-11-30T00:26:11;17.20;99.90
10213;DHT22;5150;51.400;6.692;2022-11-30T00:29:34;17.20;1.00
10213;DHT22;5150;51.400;6.692;2022-11-30T00:32:57;17.20;1.00
10213;DHT22;5150;51.400;6.692;2022-11-30T00:36:21;17.10;1.00
10213;DHT22;5150;51.400;6.692;2022-11-30T00:39:44;17.10;1.00
10213;DHT22;5150;51.400;6.692;2022-11-30T00:43:08;17.10;1.00
10213;DHT22;5150;51.400;6.692;2022-11-30T00:46:31;17.10;1.00
10213;DHT22;5150;51.400;6.692;2022-11-30T00:49:54;17.20;1.00
10213;DHT22;5150;51.400;6.692;2022-11-30T00:53:18;17.20;1.00
10213;DHT22;5150;51.400;6.692;2022-11-30T00:56:41;17.20;1.00
10213;DHT22;5150;51.400;6.692;2022-11-30T01:00:07;17.20;1.00
10213;DHT22;5150;51.400;6.692;2022-11-30T01:03:30;17.20;1.00
10213;DHT22;5150;51.400;6.692;2022-11-30T01:06:53;17.20;1.00
10213;DHT22;5150;51.400;6.692;2022-11-30T01:10:16;17.30;1.00
10213;DHT22;5150;51.400;6.692;2022-11-30T01:13:39;17.30;1.00
10213;DHT22;5150;51.400;6.692;2022-11-30T01:17:03;17.30;1.00
10213;DHT22;5150;51.400;6.692;2022-11-30T01:20:26;17.20;99.90
10213;DHT22;5150;51.400;6.692;2022-11-30T01:23:50;17.20;99.90
10213;DHT22;5150;51.400;6.692;2022-11-30T01:27:13;17.20;99.90
10213;DHT22;5150;51.400;6.692;2022-11-30T01:30:36;17.20;99.90
10213;DHT22;5150;51.400;6.692;2022-11-30T01:34:00;17.20;99.90
10213;DHT22;5150;51.400;6.692;2022-11-30T01:37:23;17.20;99.90
10213;DHT22;5150;51.400;6.692;2022-11-30T01:40:49;17.20;99.90
10213;DHT22;5150;51.400;6.692;2022-11-30T01:48:18;17.20;99.90
10213;DHT22;5150;51.400;6.692;2022-11-30T01:51:45;17.20;99.90
10213;DHT22;5150;51.400;6.692;2022-11-30T01:55:16;17.20;99.90
10213;DHT22;5150;51.400;6.692;2022-11-30T01:58:40;17.20;99.90
10213;DHT22;5150;51.400;6.692;2022-11-30T02:02:03;17.20;99.90
10213;DHT22;5150;51.400;6.692;2022-11-30T02:05:26;17.20;99.90
10213;DHT22;5150;51.400;6.692;2022-11-30T02:08:51;17.20;99.90
10213;DHT22;5150;51.400;6.692;2022-11-30T02:12:18;17.20;99.90
10213;DHT22;5150;51.400;6.692;2022-11-30T02:15:54;17.20;99.90
10213;DHT22;5150;51.400;6.692;2022-11-30T02:23:38;17.20;1.00
10213;DHT22;5150;51.400;6.692;2022-11-30T02:27:14;17.20;1.00
10213;DHT22;5150;51.400;6.692;2022-11-30T02:30:43;17.20;99.90
10213;DHT22;5150;51.400;6.692;2022-11-30T02:34:11;17.20;1.00
10213;DHT22;5150;51.400;6.692;2022-11-30T02:37:36;17.20;1.00
10213;DHT22;5150;51.400;6.692;2022-11-30T02:41:00;17.30;1.00
10213;DHT22;5150;51.400;6.692;2022-11-30T02:44:23;17.20;1.00
10213;DHT22;5150;51.400;6.692;2022-11-30T02:47:53;17.30;1.00
10213;DHT22;5150;51.400;6.692;2022-11-30T02:51:19;17.30;1.00
10213;DHT22;5150;51.400;6.692;2022-11-30T02:54:43;17.30;1.00
10213;DHT22;5150;51.400;6.692;2022-11-30T02:58:07;17.20;1.00
10213;DHT22;5150;51.400;6.692;2022-11-30T03:01:29;17.20;1.00
10213;DHT22;5150;51.400;6.692;2022-11-30T03:04:54;17.20;1.00
10213;DHT22;5150;51.400;6.692;2022-11-30T03:08:17;17.20;1.00
10213;DHT22;5150;51.400;6.692;2022-11-30T03:11:40;17.20;1.00
10213;DHT22;5150;51.400;6.692;2022-11-30T03:15:04;17.20;1.00
10213;DHT22;5150;51.400;6.692;2022-11-30T03:18:27;17.20;1.00
10213;DHT22;5150;51.400;6.692;2022-11-30T03:21:51;17.20;1.00
10213;DHT22;5150;51.400;6.692;2022-11-30T03:25:14;17.20;1.00
10213;DHT22;5150;51.400;6.692;2022-11-30T03:28:37;17.20;1.00
10213;DHT22;5150;51.400;6.692;2022-11-30T03:32:00;17.20;1.00
10213;DHT22;5150;51.400;6.692;2022-11-30T03:35:23;17.30;1.00
10213;DHT22;5150;51.400;6.692;2022-11-30T03:38:47;17.30;1.00
10213;DHT22;5150;51.400;6.692;2022-11-30T03:42:10;17.30;1.00
10213;DHT22;5150;51.400;6.692;2022-11-30T03:45:33;17.30;1.00
10213;DHT22;5150;51.400;6.692;2022-11-30T03:48:56;17.30;1.00
10213;DHT22;5150;51.400;6.692;2022-11-30T03:52:19;17.20;1.00
10213;DHT22;5150;51.400;6.692;2022-11-30T03:55:43;17.20;1.00
10213;DHT22;5150;51.400;6.692;2022-11-30T03:59:06;17.20;1.00
10213;DHT22;5150;51.400;6.692;2022-11-30T04:02:29;17.20;1.00
10213;DHT22;5150;51.400;6.692;2022-11-30T04:05:52;17.20;1.00
10213;DHT22;5150;51.400;6.692;2022-11-30T04:09:16;17.20;1.00
10213;DHT22;5150;51.400;6.692;2022-11-30T04:12:40;17.20;1.00
10213;DHT22;5150;51.400;6.692;2022-11-30T04:16:04;17.20;1.00
10213;DHT22;5150;51.400;6.692;2022-11-30T04:19:27;17.20;1.00
10213;DHT22;5150;51.400;6.692;2022-11-30T04:22:51;17.20;1.00
10213;DHT22;5150;51.400;6.692;2022-11-30T04:26:15;17.20;1.00
10213;DHT22;5150;51.400;6.692;2022-11-30T04:29:39;17.20;1.00
10213;DHT22;5150;51.400;6.692;2022-11-30T04:33:03;17.30;1.00
10213;DHT22;5150;51.400;6.692;2022-11-30T04:36:26;17.30;1.00
10213;DHT22;5150;51.400;6.692;2022-11-30T04:39:49;17.30;1.00
10213;DHT22;5150;51.400;6.692;2022-11-30T04:43:12;17.30;1.00
10213;DHT22;5150;51.400;6.692;2022-11-30T04:46:37;17.30;1.00
10213;DHT22;5150;51.400;6.692;2022-11-30T04:50:00;17.30;1.00
10213;DHT22;5150;51.400;6.692;2022-11-30T04:53:23;17.30;1.00
10213;DHT22;5150;51.400;6.692;2022-11-30T04:56:46;17.30;1.00
10213;DHT22;5150;51.400;6.692;2022-11-30T05:00:10;17.30;1.00
10213;DHT22;5150;51.400;6.692;2022-11-30T05:03:34;17.20;1.00
10213;DHT22;5150;51.400;6.692;2022-11-30T05:06:57;17.20;1.00
10213;DHT22;5150;51.400;6.692;2022-11-30T05:10:20;17.20;1.00
10213;DHT22;5150;51.400;6.692;2022-11-30T05:13:43;17.20;1.00
10213;DHT22;5150;51.400;6.692;2022-11-30T05:17:06;17.20;1.00
10213;DHT22;5150;51.400;6.692;2022-11-30T05:20:30;17.20;1.00
10213;DHT22;5150;51.400;6.692;2022-11-30T05:23:53;17.20;1.00
10213;DHT22;5150;51.400;6.692;2022-11-30T05:27:16;17.20;1.00
10213;DHT22;5150;51.400;6.692;2022-11-30T05:30:43;17.20;1.00
10213;DHT22;5150;51.400;6.692;2022-11-30T05:34:06;17.20;1.00
10213;DHT22;5150;51.400;6.692;2022-11-30T05:37:30;17.20;1.00
10213;DHT22;5150;51.400;6.692;2022-11-30T05:40:58;17.30;1.00
10213;DHT22;5150;51.400;6.692;2022-11-30T05:44:21;17.30;1.00
10213;DHT22;5150;51.400;6.692;2022-11-30T05:47:44;17.30;1.00
10213;DHT22;5150;51.400;6.692;2022-11-30T05:51:08;17.40;1.00
10213;DHT22;5150;51.400;6.692;2022-11-30T05:54:33;17.30;1.00
10213;DHT22;5150;51.400;6.692;2022-11-30T05:57:56;17.40;1.00
10213;DHT22;5150;51.400;6.692;2022-11-30T06:01:20;17.30;1.00
10213;DHT22;5150;51.400;6.692;2022-11-30T06:04:44;17.30;1.00
10213;DHT22;5150;51.400;6.692;2022-11-30T06:08:07;17.30;1.00
10213;DHT22;5150;51.400;6.692;2022-11-30T06:11:31;17.30;1.00
10213;DHT22;5150;51.400;6.692;2022-11-30T06:14:54;17.20;1.00
10213;DHT22;5150;51.400;6.692;2022-11-30T06:18:17;17.20;1.00
10213;DHT22;5150;51.400;6.692;2022-11-30T06:21:40;17.20;1.00
10213;DHT22;5150;51.400;6.692;2022-11-30T06:25:04;17.20;1.00
10213;DHT22;5150;51.400;6.692;2022-11-30T06:28:28;17.10;1.00
10213;DHT22;5150;51.400;6.692;2022-11-30T06:31:51;17.10;1.00
10213;DHT22;5150;51.400;6.692;2022-11-30T06:35:15;17.10;1.00
10213;DHT22;5150;51.400;6.692;2022-11-30T06:38:37;17.10;1.00
10213;DHT22;5150;51.400;6.692;2022-11-30T06:42:00;17.10;1.00
10213;DHT22;5150;51.400;6.692;2022-11-30T06:45:25;17.10;1.00
10213;DHT22;5150;51.400;6.692;2022-11-30T06:48:48;17.20;1.00
10213;DHT22;5150;51.400;6.692;2022-11-30T06:52:11;17.20;99.90
10213;DHT22;5150;51.400;6.692;2022-11-30T06:55:34;17.20;99.90
10213;DHT22;5150;51.400;6.692;2022-11-30T06:58:58;17.20;99.90
10213;DHT22;5150;51.400;6.692;2022-11-30T07:02:23;17.20;99.90
10213;DHT22;5150;51.400;6.692;2022-11-30T07:05:47;17.20;99.90
10213;DHT22;5150;51.400;6.692;2022-11-30T07:09:09;17.20;99.90
10213;DHT22;5150;51.400;6.692;2022-11-30T07:12:34;17.20;99.90
10213;DHT22;5150;51.400;6.692;2022-11-30T07:15:57;17.30;99.90
10213;DHT22;5150;51.400;6.692;2022-11-30T07:19:21;17.40;99.90
10213;DHT22;5150;51.400;6.692;2022-11-30T07:22:44;17.40;99.90
10213;DHT22;5150;51.400;6.692;2022-11-30T07:26:07;17.50;99.90
10213;DHT22;5150;51.400;6.692;2022-11-30T07:29:30;17.20;1.00
10213;DHT22;5150;51.400;6.692;2022-11-30T07:32:53;16.20;1.00
10213;DHT22;5150;51.400;6.692;2022-11-30T07:36:19;15.60;1.00
10213;DHT22;5150;51.400;6.692;2022-11-30T07:39:42;15.10;1.00
10213;DHT22;5150;51.400;6.692;2022-11-30T07:43:05;14.80;1.00
10213;DHT22;5150;51.400;6.692;2022-11-30T07:46:30;14.70;1.00
10213;DHT22;5150;51.400;6.692;2022-11-30T07:49:54;15.00;1.00
10213;DHT22;5150;51.400;6.692;2022-11-30T07:53:19;15.60;1.00
10213;DHT22;5150;51.400;6.692;2022-11-30T07:56:42;16.10;1.00
10213;DHT22;5150;51.400;6.692;2022-11-30T08:00:06;16.50;1.00
10213;DHT22;5150;51.400;6.692;2022-11-30T08:03:33;16.80;1.00
10213;DHT22;5150;51.400;6.692;2022-11-30T08:06:58;17.00;1.00
10213;DHT22;5150;51.400;6.692;2022-11-30T08:10:23;17.20;1.00
10213;DHT22;5150;51.400;6.692;2022-11-30T08:13:46;17.30;1.00
10213;DHT22;5150;51.400;6.692;2022-11-30T08:17:09;17.50;1.00
10213;DHT22;5150;51.400;6.692;2022-11-30T08:20:32;17.50;1.00
10213;DHT22;5150;51.400;6.692;2022-11-30T08:23:55;17.60;1.00
10213;DHT22;5150;51.400;6.692;2022-11-30T08:27:20;17.70;1.00
10213;DHT22;5150;51.400;6.692;2022-11-30T08:30:43;17.70;1.00
10213;DHT22;5150;51.400;6.692;2022-11-30T08:34:09;17.80;1.00
10213;DHT22;5150;51.400;6.692;2022-11-30T08:37:35;17.80;1.00
10213;DHT22;5150;51.400;6.692;2022-11-30T08:40:58;17.90;1.00
10213;DHT22;5150;51.400;6.692;2022-11-30T08:44:22;17.90;1.00
10213;DHT22;5150;51.400;6.692;2022-11-30T08:47:45;18.00;1.00
10213;DHT22;5150;51.400;6.692;2022-11-30T08:51:10;18.00;1.00
10213;DHT22;5150;51.400;6.692;2022-11-30T08:54:33;18.00;1.00
10213;DHT22;5150;51.400;6.692;2022-11-30T08:57:56;18.00;1.00
10213;DHT22;5150;51.400;6.692;2022-11-30T09:01:22;18.10;1.00
10213;DHT22;5150;51.400;6.692;2022-11-30T09:04:50;18.10;1.00
10213;DHT22;5150;51.400;6.692;2022-11-30T09:08:14;18.10;1.00
10213;DHT22;5150;51.400;6.692;2022-11-30T09:11:37;18.20;1.00
10213;DHT22;5150;51.400;6.692;2022-11-30T09:15:00;18.20;1.00
10213;DHT22;5150;51.400;6.692;2022-11-30T09:18:25;18.20;1.00
10213;DHT22;5150;51.400;6.692;2022-11-30T09:21:48;18.30;1.00
10213;DHT22;5150;51.400;6.692;2022-11-30T09:25:13;18.30;1.00
10213;DHT22;5150;51.400;6.692;2022-11-30T09:28:37;18.30;1.00
10213;DHT22;5150;51.400;6.692;2022-11-30T09:32:00;18.40;1.00
10213;DHT22;5150;51.400;6.692;2022-11-30T09:35:25;18.40;1.00
10213;DHT22;5150;51.400;6.692;2022-11-30T09:38:50;18.40;1.00
10213;DHT22;5150;51.400;6.692;2022-11-30T09:42:30;18.40;1.00
10213;DHT22;5150;51.400;6.692;2022-11-30T09:45:57;18.40;1.00
10213;DHT22;5150;51.400;6.692;2022-11-30T09:49:23;18.30;1.00
10213;DHT22;5150;51.400;6.692;2022-11-30T09:52:50;18.30;1.00
10213;DHT22;5150;51.400;6.692;2022-11-30T09:56:18;18.30;1.00
10213;DHT22;5150;51.400;6.692;2022-11-30T09:59:47;18.30;1.00
10213;DHT22;5150;51.400;6.692;2022-11-30T10:03:13;18.30;1.00
10213;DHT22;5150;51.400;6.692;2022-11-30T10:06:40;18.30;1.00
10213;DHT22;5150;51.400;6.692;2022-11-30T10:10:12;18.30;1.00
10213;DHT22;5150;51.400;6.692;2022-11-30T10:14:03;18.30;1.00
10213;DHT22;5150;51.400;6.692;2022-11-30T10:17:36;18.30;1.00
10213;DHT22;5150;51.400;6.692;2022-11-30T10:21:09;18.40;1.00
10213;DHT22;5150;51.400;6.692;2022-11-30T10:24:43;18.50;1.00
10213;DHT22;5150;51.400;6.692;2022-11-30T10:28:16;18.50;1.00
10213;DHT22;5150;51.400;6.692;2022-11-30T10:32:08;18.50;1.00
10213;DHT22;5150;51.400;6.692;2022-11-30T10:35:34;18.60;1.00
10213;DHT22;5150;51.400;6.692;2022-11-30T10:39:01;18.70;1.00
10213;DHT22;5150;51.400;6.692;2022-11-30T10:42:30;18.70;1.00
10213;DHT22;5150;51.400;6.692;2022-11-30T10:45:55;18.70;1.00
10213;DHT22;5150;51.400;6.692;2022-11-30T10:49:19;18.70;1.00
10213;DHT22;5150;51.400;6.692;2022-11-30T10:52:46;18.70;1.00
10213;DHT22;5150;51.400;6.692;2022-11-30T10:56:11;18.70;1.00
10213;DHT22;5150;51.400;6.692;2022-11-30T10:59:40;18.70;1.00
10213;DHT22;5150;51.400;6.692;2022-11-30T11:03:21;18.60;1.00
10213;DHT22;5150;51.400;6.692;2022-11-30T11:06:46;18.60;1.00
10213;DHT22;5150;51.400;6.692;2022-11-30T11:10:12;18.50;1.00
10213;DHT22;5150;51.400;6.692;2022-11-30T11:13:38;18.50;1.00
10213;DHT22;5150;51.400;6.692;2022-11-30T11:17:04;18.50;1.00
10213;DHT22;5150;51.400;6.692;2022-11-30T11:20:32;18.50;1.00
10213;DHT22;5150;51.400;6.692;2022-11-30T11:23:55;18.60;1.00
10213;DHT22;5150;51.400;6.692;2022-11-30T11:27:23;18.60;1.00
10213;DHT22;5150;51.400;6.692;2022-11-30T11:30:47;18.60;1.00
10213;DHT22;5150;51.400;6.692;2022-11-30T11:34:23;18.70;1.00
10213;DHT22;5150;51.400;6.692;2022-11-30T11:37:51;18.70;1.00
10213;DHT22;5150;51.400;6.692;2022-11-30T11:41:19;18.70;1.00
10213;DHT22;5150;51.400;6.692;2022-11-30T11:44:43;18.70;1.00
10213;DHT22;5150;51.400;6.692;2022-11-30T11:48:26;18.70;1.00
10213;DHT22;5150;51.400;6.692;2022-11-30T11:51:59;18.70;1.00
10213;DHT22;5150;51.400;6.692;2022-11-30T11:55:24;18.70;1.00
10213;DHT22;5150;51.400;6.692;2022-11-30T11:58:50;18.70;1.00
10213;DHT22;5150;51.400;6.692;2022-11-30T12:02:22;18.80;1.00
10213;DHT22;5150;51.400;6.692;2022-11-30T12:05:55;18.80;1.00
10213;DHT22;5150;51.400;6.692;2022-11-30T12:09:23;18.80;1.00
10213;DHT22;5150;51.400;6.692;2022-11-30T12:12:48;18.80;1.00
10213;DHT22;5150;51.400;6.692;2022-11-30T12:16:34;18.80;1.00
10213;DHT22;5150;51.400;6.692;2022-11-30T12:20:04;18.80;1.00
10213;DHT22;5150;51.400;6.692;2022-11-30T12:23:48;18.80;1.00
10213;DHT22;5150;51.400;6.692;2022-11-30T12:27:20;18.80;1.00
10213;DHT22;5150;51.400;6.692;2022-11-30T12:30:59;18.80;1.00
10213;DHT22;5150;51.400;6.692;2022-11-30T12:34:38;18.90;1.00
10213;DHT22;5150;51.400;6.692;2022-11-30T12:38:13;18.90;1.00
10213;DHT22;5150;51.400;6.692;2022-11-30T12:41:48;18.90;1.00
10213;DHT22;5150;51.400;6.692;2022-11-30T12:45:16;19.00;1.00
10213;DHT22;5150;51.400;6.692;2022-11-30T12:48:51;19.00;1.00
10213;DHT22;5150;51.400;6.692;2022-11-30T12:52:31;19.00;1.00
10213;DHT22;5150;51.400;6.692;2022-11-30T12:56:08;19.00;1.00
10213;DHT22;5150;51.400;6.692;2022-11-30T12:59:41;19.00;1.00
10213;DHT22;5150;51.400;6.692;2022-11-30T13:03:23;18.90;1.00
10213;DHT22;5150;51.400;6.692;2022-11-30T13:06:52;18.80;1.00
10213;DHT22;5150;51.400;6.692;2022-11-30T13:10:23;18.80;1.00
10213;DHT22;5150;51.400;6.692;2022-11-30T13:13:50;18.80;1.00
10213;DHT22;5150;51.400;6.692;2022-11-30T13:17:18;18.80;1.00
10213;DHT22;5150;51.400;6.692;2022-11-30T13:20:46;18.80;1.00
10213;DHT22;5150;51.400;6.692;2022-11-30T13:24:17;18.70;1.00
10213;DHT22;5150;51.400;6.692;2022-11-30T13:27:49;18.70;1.00
10213;DHT22;5150;51.400;6.692;2022-11-30T13:31:21;18.70;1.00
10213;DHT22;5150;51.400;6.692;2022-11-30T13:34:46;18.70;1.00
10213;DHT22;5150;51.400;6.692;2022-11-30T13:38:17;18.70;1.00
10213;DHT22;5150;51.400;6.692;2022-11-30T13:42:31;18.70;1.00
10213;DHT22;5150;51.400;6.692;2022-11-30T13:46:06;18.60;1.00
10213;DHT22;5150;51.400;6.692;2022-11-30T13:49:35;18.60;1.00
10213;DHT22;5150;51.400;6.692;2022-11-30T13:53:16;18.50;1.00
10213;DHT22;5150;51.400;6.692;2022-11-30T13:56:40;18.50;1.00
10213;DHT22;5150;51.400;6.692;2022-11-30T14:04:36;18.40;1.00
10213;DHT22;5150;51.400;6.692;2022-11-30T14:08:30;18.40;1.00
10213;DHT22;5150;51.400;6.692;2022-11-30T14:11:54;18.40;1.00
10213;DHT22;5150;51.400;6.692;2022-11-30T14:15:51;18.40;1.00
10213;DHT22;5150;51.400;6.692;2022-11-30T14:19:14;18.30;1.00
10213;DHT22;5150;51.400;6.692;2022-11-30T14:22:39;18.20;1.00
10213;DHT22;5150;51.400;6.692;2022-11-30T14:26:06;18.20;1.00
10213;DHT22;5150;51.400;6.692;2022-11-30T14:29:34;18.20;1.00
10213;DHT22;5150;51.400;6.692;2022-11-30T14:33:01;18.10;1.00
10213;DHT22;5150;51.400;6.692;2022-11-30T14:36:32;18.10;1.00
10213;DHT22;5150;51.400;6.692;2022-11-30T14:40:01;18.10;1.00
10213;DHT22;5150;51.400;6.692;2022-11-30T14:43:24;18.00;1.00
10213;DHT22;5150;51.400;6.692;2022-11-30T14:46:49;18.00;1.00
10213;DHT22;5150;51.400;6.692;2022-11-30T14:50:21;17.90;1.00
10213;DHT22;5150;51.400;6.692;2022-11-30T14:53:50;17.90;1.00
10213;DHT22;5150;51.400;6.692;2022-11-30T14:57:21;17.90;1.00
10213;DHT22;5150;51.400;6.692;2022-11-30T15:00:49;17.90;1.00
10213;DHT22;5150;51.400;6.692;2022-11-30T15:04:16;17.80;1.00
10213;DHT22;5150;51.400;6.692;2022-11-30T15:07:42;17.80;1.00
10213;DHT22;5150;51.400;6.692;2022-11-30T15:11:08;17.80;1.00
10213;DHT22;5150;51.400;6.692;2022-11-30T15:14:34;17.80;1.00
10213;DHT22;5150;51.400;6.692;2022-11-30T15:18:05;17.80;1.00
10213;DHT22;5150;51.400;6.692;2022-11-30T15:21:31;17.80;1.00
10213;DHT22;5150;51.400;6.692;2022-11-30T15:24:54;17.70;1.00
10213;DHT22;5150;51.400;6.692;2022-11-30T15:28:20;17.70;1.00
10213;DHT22;5150;51.400;6.692;2022-11-30T15:31:49;17.70;1.00
10213;DHT22;5150;51.400;6.692;2022-11-30T15:35:18;17.70;1.00
10213;DHT22;5150;51.400;6.692;2022-11-30T15:38:47;17.70;1.00
10213;DHT22;5150;51.400;6.692;2022-11-30T15:42:18;17.70;1.00
10213;DHT22;5150;51.400;6.692;2022-11-30T15:45:51;17.60;1.00
10213;DHT22;5150;51.400;6.692;2022-11-30T15:49:21;17.60;1.00
10213;DHT22;5150;51.400;6.692;2022-11-30T15:52:47;17.60;1.00
10213;DHT22;5150;51.400;6.692;2022-11-30T15:56:21;17.70;1.00
10213;DHT22;5150;51.400;6.692;2022-11-30T16:00:04;17.60;1.00
10213;DHT22;5150;51.400;6.692;2022-11-30T16:03:28;17.60;1.00
10213;DHT22;5150;51.400;6.692;2022-11-30T16:06:52;17.60;1.00
10213;DHT22;5150;51.400;6.692;2022-11-30T16:10:18;17.60;1.00
10213;DHT22;5150;51.400;6.692;2022-11-30T16:13:42;17.60;1.00
10213;DHT22;5150;51.400;6.692;2022-11-30T16:17:05;17.60;1.00
10213;DHT22;5150;51.400;6.692;2022-11-30T16:20:30;17.50;1.00
10213;DHT22;5150;51.400;6.692;2022-11-30T16:23:54;17.60;1.00
10213;DHT22;5150;51.400;6.692;2022-11-30T16:27:18;17.60;1.00
10213;DHT22;5150;51.400;6.692;2022-11-30T16:30:44;17.60;1.00
10213;DHT22;5150;51.400;6.692;2022-11-30T16:34:09;17.60;1.00
10213;DHT22;5150;51.400;6.692;2022-11-30T16:37:33;17.50;9.90
10213;DHT22;5150;51.400;6.692;2022-11-30T16:41:12;17.50;29.10
10213;DHT22;5150;51.400;6.692;2022-11-30T16:44:35;17.50;33.50
10213;DHT22;5150;51.400;6.692;2022-11-30T16:47:58;17.50;32.80
10213;DHT22;5150;51.400;6.692;2022-11-30T16:51:23;17.50;41.10
10213;DHT22;5150;51.400;6.692;2022-11-30T16:54:47;17.50;36.80
10213;DHT22;5150;51.400;6.692;2022-11-30T16:58:12;17.50;34.10
10213;DHT22;5150;51.400;6.692;2022-11-30T17:01:37;17.50;34.00
10213;DHT22;5150;51.400;6.692;2022-11-30T17:05:01;17.40;36.00
10213;DHT22;5150;51.400;6.692;2022-11-30T17:08:24;17.40;35.10
10213;DHT22;5150;51.400;6.692;2022-11-30T17:11:48;17.40;38.10
10213;DHT22;5150;51.400;6.692;2022-11-30T17:15:15;17.40;50.30
10213;DHT22;5150;51.400;6.692;2022-11-30T17:18:39;17.40;69.60
10213;DHT22;5150;51.400;6.692;2022-11-30T17:22:02;17.30;82.90
10213;DHT22;5150;51.400;6.692;2022-11-30T17:25:26;17.30;95.80
10213;DHT22;5150;51.400;6.692;2022-11-30T17:28:49;17.20;99.90
10213;DHT22;5150;51.400;6.692;2022-11-30T17:32:13;17.20;99.90
10213;DHT22;5150;51.400;6.692;2022-11-30T17:35:37;17.20;99.90
10213;DHT22;5150;51.400;6.692;2022-11-30T17:39:03;17.20;99.90
10213;DHT22;5150;51.400;6.692;2022-11-30T17:42:26;17.10;99.90
10213;DHT22;5150;51.400;6.692;2022-11-30T17:45:50;17.10;99.90
10213;DHT22;5150;51.400;6.692;2022-11-30T17:49:15;17.10;99.90
10213;DHT22;5150;51.400;6.692;2022-11-30T17:52:38;17.10;99.90
10213;DHT22;5150;51.400;6.692;2022-11-30T17:56:02;17.10;99.90
10213;DHT22;5150;51.400;6.692;2022-11-30T17:59:25;17.10;99.90
10213;DHT22;5150;51.400;6.692;2022-11-30T18:02:49;17.10;99.90
10213;DHT22;5150;51.400;6.692;2022-11-30T18:06:14;17.10;99.90
10213;DHT22;5150;51.400;6.692;2022-11-30T18:09:37;17.00;99.90
10213;DHT22;5150;51.400;6.692;2022-11-30T18:13:03;17.00;99.90
10213;DHT22;5150;51.400;6.692;2022-11-30T18:16:28;17.00;99.90
10213;DHT22;5150;51.400;6.692;2022-11-30T18:19:51;17.00;99.90
10213;DHT22;5150;51.400;6.692;2022-11-30T18:23:16;17.00;99.90
10213;DHT22;5150;51.400;6.692;2022-11-30T18:26:39;17.00;99.90
10213;DHT22;5150;51.400;6.692;2022-11-30T18:30:02;17.00;99.90
10213;DHT22;5150;51.400;6.692;2022-11-30T18:33:31;17.00;99.90
10213;DHT22;5150;51.400;6.692;2022-11-30T18:36:54;17.00;99.90
10213;DHT22;5150;51.400;6.692;2022-11-30T18:40:19;17.00;99.90
10213;DHT22;5150;51.400;6.692;2022-11-30T18:43:42;17.00;99.90
10213;DHT22;5150;51.400;6.692;2022-11-30T18:47:06;16.90;99.90
10213;DHT22;5150;51.400;6.692;2022-11-30T18:50:29;17.00;99.90
10213;DHT22;5150;51.400;6.692;2022-11-30T18:53:53;16.90;99.90
10213;DHT22;5150;51.400;6.692;2022-11-30T18:57:19;16.90;99.90
10213;DHT22;5150;51.400;6.692;2022-11-30T19:00:42;16.90;99.90
10213;DHT22;5150;51.400;6.692;2022-11-30T19:04:07;16.90;99.90
10213;DHT22;5150;51.400;6.692;2022-11-30T19:07:31;16.90;99.90
10213;DHT22;5150;51.400;6.692;2022-11-30T19:11:00;16.90;99.90
10213;DHT22;5150;51.400;6.692;2022-11-30T19:14:27;16.90;99.90
10213;DHT22;5150;51.400;6.692;2022-11-30T19:17:50;16.90;99.90
10213;DHT22;5150;51.400;6.692;2022-11-30T19:21:15;16.90;99.90
10213;DHT22;5150;51.400;6.692;2022-11-30T19:24:39;16.80;99.90
10213;DHT22;5150;51.400;6.692;2022-11-30T19:28:02;16.90;99.90
10213;DHT22;5150;51.400;6.692;2022-11-30T19:31:26;16.90;99.90
10213;DHT22;5150;51.400;6.692;2022-11-30T19:34:49;16.80;99.90
10213;DHT22;5150;51.400;6.692;2022-11-30T19:38:13;16.90;99.90
10213;DHT22;5150;51.400;6.692;2022-11-30T19:41:36;16.80;99.90
10213;DHT22;5150;51.400;6.692;2022-11-30T19:44:59;16.80;99.90
10213;DHT22;5150;51.400;6.692;2022-11-30T19:48:23;16.80;1.00
10213;DHT22;5150;51.400;6.692;2022-11-30T19:51:46;16.80;1.00
10213;DHT22;5150;51.400;6.692;2022-11-30T19:55:09;16.80;1.00
10213;DHT22;5150;51.400;6.692;2022-11-30T19:58:32;16.80;1.00
10213;DHT22;5150;51.400;6.692;2022-11-30T20:01:55;16.80;1.00
10213;DHT22;5150;51.400;6.692;2022-11-30T20:05:19;16.80;1.00
10213;DHT22;5150;51.400;6.692;2022-11-30T20:08:42;16.80;1.00
10213;DHT22;5150;51.400;6.692;2022-11-30T20:12:06;16.80;1.00
10213;DHT22;5150;51.400;6.692;2022-11-30T20:15:29;16.80;1.00
10213;DHT22;5150;51.400;6.692;2022-11-30T20:18:53;16.70;1.00
10213;DHT22;5150;51.400;6.692;2022-11-30T20:22:18;16.80;1.00
10213;DHT22;5150;51.400;6.692;2022-11-30T20:25:41;16.80;1.00
10213;DHT22;5150;51.400;6.692;2022-11-30T20:29:06;16.70;1.00
10213;DHT22;5150;51.400;6.692;2022-11-30T20:32:29;16.70;1.00
10213;DHT22;5150;51.400;6.692;2022-11-30T20:35:52;16.70;1.00
10213;DHT22;5150;51.400;6.692;2022-11-30T20:39:17;16.70;1.00
10213;DHT22;5150;51.400;6.692;2022-11-30T20:42:40;16.70;1.00
10213;DHT22;5150;51.400;6.692;2022-11-30T20:46:11;16.70;1.00
10213;DHT22;5150;51.400;6.692;2022-11-30T20:49:35;16.70;1.00
10213;DHT22;5150;51.400;6.692;2022-11-30T20:52:58;16.70;1.00
10213;DHT22;5150;51.400;6.692;2022-11-30T20:56:22;16.70;1.00
10213;DHT22;5150;51.400;6.692;2022-11-30T20:59:45;16.70;1.00
10213;DHT22;5150;51.400;6.692;2022-11-30T21:03:09;16.70;1.00
10213;DHT22;5150;51.400;6.692;2022-11-30T21:06:32;16.70;1.00
10213;DHT22;5150;51.400;6.692;2022-11-30T21:09:55;16.70;1.00
10213;DHT22;5150;51.400;6.692;2022-11-30T21:13:20;16.70;1.00
10213;DHT22;5150;51.400;6.692;2022-11-30T21:16:43;16.70;1.00
10213;DHT22;5150;51.400;6.692;2022-11-30T21:20:07;16.70;1.00
10213;DHT22;5150;51.400;6.692;2022-11-30T21:23:30;16.60;1.00
10213;DHT22;5150;51.400;6.692;2022-11-30T21:26:54;16.60;1.00
10213;DHT22;5150;51.400;6.692;2022-11-30T21:30:18;16.60;1.00
10213;DHT22;5150;51.400;6.692;2022-11-30T21:33:41;16.60;1.00
10213;DHT22;5150;51.400;6.692;2022-11-30T21:37:13;16.60;1.00
10213;DHT22;5150;51.400;6.692;2022-11-30T21:40:35;16.70;1.00
10213;DHT22;5150;51.400;6.692;2022-11-30T21:43:58;16.60;1.00
10213;DHT22;5150;51.400;6.692;2022-11-30T21:47:23;16.70;1.00
10213;DHT22;5150;51.400;6.692;2022-11-30T21:50:46;16.70;1.00
10213;DHT22;5150;51.400;6.692;2022-11-30T21:54:10;16.70;1.00
10213;DHT22;5150;51.400;6.692;2022-11-30T21:57:33;16.70;1.00
10213;DHT22;5150;51.400;6.692;2022-11-30T22:00:58;16.70;1.00
10213;DHT22;5150;51.400;6.692;2022-11-30T22:04:22;16.70;1.00
10213;DHT22;5150;51.400;6.692;2022-11-30T22:07:46;16.70;1.00
10213;DHT22;5150;51.400;6.692;2022-11-30T22:11:10;16.70;1.00
10213;DHT22;5150;51.400;6.692;2022-11-30T22:14:33;16.70;1.00
10213;DHT22;5150;51.400;6.692;2022-11-30T22:17:57;16.70;1.00
10213;DHT22;5150;51.400;6.692;2022-11-30T22:21:22;16.70;1.00
10213;DHT22;5150;51.400;6.692;2022-11-30T22:24:46;16.70;1.00
10213;DHT22;5150;51.400;6.692;2022-11-30T22:28:09;16.70;1.00
10213;DHT22;5150;51.400;6.692;2022-11-30T22:31:34;16.70;1.00